.
WxDataArchive / Data Records for 2013-02-10
2013-02-09 February 2013 2013-02-11

Data Records for Sunday, 10 February 2013

Time	Temp	Chill	HIndex	Humid	Dewpt	 Wind 	HiWind	WindDir	Rain 	Barom 
-----	----	-----	------	-----	-----	------	------	-------	-----	----- 
00:00	26.1	26.1	26.1	83	21.7	1	3	112	0.00	30.250 
00:05	26.0	26.0	26.0	83	21.6	1	2	112	0.00	30.250 
00:10	26.0	26.0	26.0	83	21.6	0	1	112	0.00	30.250 
00:15	25.8	25.8	25.8	83	21.4	0	2	112	0.00	30.243 
00:20	25.8	25.8	25.8	84	21.6	0	2	112	0.00	30.243 
00:25	25.7	25.7	25.7	84	21.5	0	2	112	0.00	30.243 
00:30	25.7	25.7	25.7	84	21.5	1	2	112	0.00	30.233 
00:35	25.8	25.8	25.8	84	21.6	0	3	112	0.00	30.233 
00:40	25.8	25.8	25.8	84	21.6	0	3	112	0.00	30.233 
00:45	25.8	25.8	25.8	84	21.6	0	2	112	0.00	30.230 
00:50	25.8	25.8	25.8	84	21.6	0	1	112	0.00	30.230 
00:55	25.8	25.8	25.8	84	21.6	0	2	112	0.00	30.230 
01:00	25.8	25.8	25.8	85	21.9	0	1	112	0.00	30.225 
01:05	26.0	26.0	26.0	85	22.1	0	1	112	0.00	30.225 
01:10	26.0	26.0	26.0	85	22.1	0	3	112	0.00	30.225 
01:15	26.1	26.1	26.1	84	21.9	0	2	112	0.00	30.218 
01:20	26.1	26.1	26.1	84	21.9	0	2	112	0.00	30.218 
01:25	26.1	26.1	26.1	84	21.9	0	1	112	0.00	30.218 
01:30	26.0	26.0	26.0	85	22.1	0	2	112	0.00	30.215 
01:35	26.0	26.0	26.0	85	22.1	0	2	112	0.00	30.215 
01:40	26.1	26.1	26.1	85	22.2	1	3	112	0.00	30.215 
01:45	26.3	26.3	26.3	85	22.4	1	3	112	0.00	30.202 
01:50	26.4	26.4	26.4	85	22.5	1	3	112	0.00	30.202 
01:55	26.6	26.6	26.6	85	22.7	1	3	112	0.00	30.202 
02:00	26.7	26.7	26.7	84	22.5	2	3	112	0.00	30.191 
02:05	27.0	27.0	27.0	84	22.8	2	4	112	0.00	30.191 
02:10	27.0	27.0	27.0	84	22.8	1	3	112	0.00	30.191 
02:15	27.2	27.2	27.2	84	23.0	1	4	112	0.00	30.186 
02:20	27.3	27.3	27.3	83	22.8	1	3	112	0.00	30.186 
02:25	27.3	27.3	27.3	83	22.8	1	3	112	0.00	30.186 
02:30	27.3	27.3	27.3	83	22.8	0	1	112	0.00	30.186 
02:35	27.3	27.3	27.3	83	22.8	0	1	112	0.00	30.186 
02:40	27.5	27.5	27.5	83	23.0	0	2	112	0.00	30.186 
02:45	27.5	27.5	27.5	83	23.0	0	2	112	0.00	30.185 
02:50	27.5	27.5	27.5	83	23.0	0	1	112	0.00	30.185 
02:55	27.6	27.6	27.6	83	23.1	0	1	112	0.00	30.185 
03:00	27.6	27.6	27.6	82	22.8	1	3	112	0.00	30.183 
03:05	27.8	27.8	27.8	82	23.0	0	1	112	0.00	30.183 
03:10	27.8	27.8	27.8	82	23.0	0	1	112	0.00	30.183 
03:15	27.9	27.9	27.9	82	23.1	0	2	112	0.00	30.178 
03:20	27.9	27.9	27.9	81	22.8	0	2	112	0.00	30.178 
03:25	28.1	28.1	28.1	81	23.0	0	2	112	0.00	30.178 
03:30	28.2	28.2	28.2	81	23.1	1	2	112	0.00	30.169 
03:35	28.2	28.2	28.2	81	23.1	0	1	112	0.00	30.169 
03:40	28.4	28.4	28.4	80	23.0	0	1	112	0.00	30.169 
03:45	28.4	28.4	28.4	80	23.0	0	1	112	0.00	30.169 
03:50	28.4	28.4	28.4	80	23.0	0	1	112	0.00	30.169 
03:55	28.4	28.4	28.4	80	23.0	0	1	112	0.00	30.169 
04:00	28.4	28.4	28.4	80	23.0	0	1	112	0.00	30.168 
04:05	28.4	28.4	28.4	80	23.0	0	1	112	0.00	30.168 
04:10	28.4	28.4	28.4	80	23.0	0	1	112	0.00	30.168 
04:15	28.4	28.4	28.4	80	23.0	0	1	112	0.00	30.169 
04:20	28.4	28.4	28.4	79	22.7	0	1	112	0.00	30.169 
04:25	28.4	28.4	28.4	79	22.7	0	1	112	0.00	30.169 
04:30	28.4	28.4	28.4	79	22.7	0	1	112	0.00	30.170 
04:35	28.4	28.4	28.4	79	22.7	0	1	112	0.00	30.170 
04:40	28.5	28.5	28.5	79	22.8	0	1	112	0.00	30.170 
04:45	28.5	28.5	28.5	78	22.5	0	1	112	0.00	30.170 
04:50	28.4	28.4	28.4	79	22.7	0	1	112	0.00	30.170 
04:55	28.4	28.4	28.4	79	22.7	0	1	112	0.00	30.170 
05:00	28.4	28.4	28.4	79	22.7	0	0	---	0.00	30.171 
05:05	28.4	28.4	28.4	79	22.7	0	1	112	0.00	30.171 
05:10	28.4	28.4	28.4	79	22.7	0	1	112	0.00	30.171 
05:15	28.5	28.5	28.5	78	22.5	1	6	90	0.00	30.172 
05:20	28.8	28.8	28.8	77	22.5	0	2	90	0.00	30.172 
05:25	29.0	29.0	29.0	77	22.7	0	4	90	0.00	30.172 
05:30	29.3	29.3	29.3	76	22.7	1	4	90	0.00	30.156 
05:35	29.5	29.5	29.5	75	22.6	0	2	90	0.00	30.156 
05:40	29.8	29.8	29.8	75	22.9	0	2	90	0.00	30.156 
05:45	29.8	29.8	29.8	75	22.9	1	3	90	0.00	30.154 
05:50	29.8	29.8	29.8	75	22.9	0	1	90	0.00	30.154 
05:55	30.0	30.0	30.0	75	23.1	1	3	90	0.00	30.154 
06:00	29.8	29.8	29.8	76	23.2	1	3	90	0.00	30.148 
06:05	29.7	29.7	29.7	77	23.4	1	4	90	0.00	30.148 
06:10	29.5	29.5	29.5	78	23.5	1	4	90	0.00	30.148 
06:15	29.5	29.5	29.5	78	23.5	1	4	90	0.00	30.136 
06:20	29.5	29.5	29.5	78	23.5	0	2	90	0.00	30.136 
06:25	29.5	29.5	29.5	79	23.8	0	2	90	0.00	30.136 
06:30	29.5	29.5	29.5	79	23.8	1	2	90	0.00	30.140 
06:35	29.5	29.5	29.5	79	23.8	1	4	90	0.00	30.140 
06:40	29.7	29.7	29.7	80	24.3	1	4	90	0.00	30.140 
06:45	29.7	29.7	29.7	80	24.3	2	4	90	0.00	30.123 
06:50	29.7	29.7	29.7	80	24.3	3	6	90	0.00	30.123 
06:55	29.7	29.7	29.7	80	24.3	1	4	90	0.00	30.123 
07:00	29.8	29.8	29.8	80	24.4	1	3	90	0.00	30.131 
07:05	30.0	30.0	30.0	80	24.6	1	4	90	0.00	30.131 
07:10	30.1	30.1	30.1	79	24.4	1	3	90	0.00	30.131 
07:15	30.3	30.3	30.3	79	24.6	0	2	90	0.00	30.125 
07:20	30.3	30.3	30.3	79	24.6	1	3	90	0.00	30.125 
07:25	30.4	30.4	30.4	79	24.7	1	3	90	0.00	30.125 
07:30	30.6	30.6	30.6	78	24.6	1	3	90	0.00	30.135 
07:35	30.6	30.6	30.6	78	24.6	0	2	90	0.00	30.135 
07:40	30.6	30.6	30.6	79	24.9	0	2	90	0.00	30.135 
07:45	30.7	30.7	30.7	79	25.0	0	2	90	0.00	30.147 
07:50	30.7	30.7	30.7	79	25.0	1	3	90	0.00	30.147 
07:55	30.7	30.7	30.7	79	25.0	2	4	90	0.00	30.147 
08:00	30.9	30.9	30.9	79	25.2	1	6	90	0.00	30.128 
08:05	31.0	31.0	31.0	79	25.3	1	3	90	0.00	30.128 
08:10	31.0	31.0	31.0	79	25.3	1	3	90	0.00	30.128 
08:15	31.2	31.2	31.2	78	25.2	1	4	90	0.00	30.121 
08:20	31.3	31.3	31.3	78	25.3	1	3	90	0.00	30.121 
08:25	31.6	31.6	31.6	77	25.2	1	3	90	0.00	30.121 
08:30	31.8	31.8	31.8	77	25.4	0	2	90	0.00	30.107 
08:35	31.8	31.8	31.8	77	25.4	1	3	90	0.00	30.107 
08:40	31.9	31.9	31.9	77	25.5	2	4	90	0.00	30.107 
08:45	31.9	31.9	31.9	77	25.5	1	4	90	0.00	30.096 
08:50	32.1	32.1	32.1	77	25.7	1	4	90	0.00	30.096 
08:55	32.2	32.2	32.2	76	25.5	2	3	90	0.00	30.096 
09:00	32.5	32.5	32.5	76	25.8	2	4	90	0.00	30.091 
09:05	32.5	32.5	32.5	75	25.5	2	5	90	0.00	30.091 
09:10	32.7	32.7	32.7	75	25.7	1	4	90	0.00	30.091 
09:15	32.8	32.8	32.8	75	25.8	1	3	90	0.00	30.094 
09:20	32.8	32.8	32.8	74	25.4	1	4	90	0.00	30.094 
09:25	32.9	32.9	32.9	74	25.5	1	4	90	0.00	30.094 
09:30	33.1	33.1	33.1	73	25.4	1	3	90	0.00	30.091 
09:35	33.2	33.2	33.2	73	25.5	1	6	90	0.00	30.091 
09:40	33.4	33.4	33.4	73	25.7	2	6	90	0.00	30.091 
09:45	33.5	33.5	33.5	72	25.5	1	3	90	0.00	30.089 
09:50	33.8	33.8	33.8	72	25.7	1	4	90	0.00	30.089 
09:55	34.0	34.0	34.0	72	25.9	0	2	90	0.00	30.089 
10:00	34.1	34.1	34.1	72	26.0	1	2	90	0.00	30.093 
10:05	34.3	34.3	34.3	70	25.5	1	5	90	0.00	30.093 
10:10	34.6	34.6	34.6	70	25.8	1	2	112	0.00	30.093 
10:15	34.9	34.9	34.9	69	25.8	1	3	112	0.00	30.089 
10:20	35.0	35.0	35.0	69	25.9	1	3	112	0.00	30.089 
10:25	35.2	35.2	35.2	69	26.1	2	5	90	0.00	30.089 
10:30	35.3	35.3	35.3	68	25.8	2	7	90	0.00	30.085 
10:35	35.5	35.5	35.5	68	26.0	1	4	90	0.00	30.085 
10:40	35.8	35.8	35.8	68	26.3	1	4	90	0.00	30.085 
10:45	36.2	36.2	36.2	68	26.7	0	2	90	0.00	30.079 
10:50	36.6	36.6	36.6	67	26.7	1	3	90	0.00	30.079 
10:55	37.2	37.2	37.2	66	26.9	0	2	90	0.00	30.079 
11:00	37.6	37.6	37.6	64	26.5	1	3	90	0.00	30.071 
11:05	38.0	38.0	38.0	63	26.5	1	4	90	0.00	30.071 
11:10	38.3	38.3	38.3	62	26.4	2	5	90	0.00	30.071 
11:15	38.5	38.5	38.5	63	27.0	1	5	90	0.00	30.055 
11:20	38.5	38.5	38.5	63	27.0	1	3	112	0.00	30.055 
11:25	38.3	38.3	38.3	64	27.2	2	4	112	0.00	30.055 
11:30	38.3	38.3	38.3	64	27.2	2	5	112	0.00	30.044 
11:35	38.5	38.5	38.5	65	27.8	1	4	112	0.00	30.044 
11:40	38.8	38.8	38.8	64	27.7	1	3	112	0.00	30.044 
11:45	39.1	39.1	39.1	64	28.0	1	3	112	0.00	30.031 
11:50	39.3	39.3	39.3	64	28.2	1	3	112	0.00	30.031 
11:55	39.6	39.6	39.6	64	28.4	1	4	112	0.00	30.031 
12:00	39.8	39.8	39.8	64	28.6	2	6	112	0.00	30.020 
12:05	39.9	39.9	39.9	64	28.7	0	2	112	0.00	30.020 
12:10	40.2	40.2	40.2	64	29.0	0	2	112	0.00	30.020 
12:15	40.3	40.3	40.3	64	29.1	0	2	112	0.00	30.009 
12:20	40.3	40.3	40.3	65	29.5	1	5	112	0.00	30.009 
12:25	40.3	40.3	40.3	65	29.5	1	4	112	0.00	30.009 
12:30	40.3	40.3	40.3	65	29.5	2	5	112	0.00	29.993 
12:35	40.3	40.3	40.3	65	29.5	2	4	90	0.00	29.993 
12:40	40.5	40.5	40.5	65	29.7	1	4	90	0.00	29.993 
12:45	40.5	40.5	40.5	66	30.0	2	4	90	0.00	29.979 
12:50	40.5	40.5	40.5	67	30.4	2	5	90	0.00	29.979 
12:55	40.3	40.3	40.3	67	30.2	1	4	90	0.00	29.979 
13:00	40.5	40.5	40.5	68	30.8	3	5	90	0.00	29.965 
13:05	40.6	40.6	40.6	68	30.9	3	6	90	0.00	29.965 
13:10	40.8	40.8	40.8	68	31.1	2	4	90	0.00	29.965 
13:15	40.8	40.8	40.8	68	31.1	2	5	90	0.00	29.957 
13:20	40.8	40.8	40.8	68	31.1	2	5	112	0.00	29.957 
13:25	40.6	40.6	40.6	69	31.2	2	6	90	0.00	29.957 
13:30	40.5	40.5	40.5	69	31.1	2	4	90	0.00	29.957 
13:35	40.3	40.3	40.3	70	31.3	2	5	90	0.00	29.957 
13:40	40.3	40.3	40.3	70	31.3	3	5	90	0.00	29.957 
13:45	40.2	40.2	40.2	71	31.6	2	5	112	0.00	29.946 
13:50	40.2	40.2	40.2	71	31.6	3	6	90	0.00	29.946 
13:55	40.2	40.2	40.2	71	31.6	3	9	90	0.00	29.946 
14:00	40.2	40.2	40.2	71	31.6	3	6	112	0.00	29.933 
14:05	40.3	40.3	40.3	71	31.7	2	6	112	0.00	29.933 
14:10	40.5	40.5	40.5	71	31.8	3	6	90	0.00	29.933 
14:15	40.6	40.6	40.6	71	31.9	2	4	90	0.00	29.917 
14:20	40.6	40.6	40.6	71	31.9	2	6	90	0.00	29.917 
14:25	40.6	40.6	40.6	71	31.9	3	7	90	0.00	29.917 
14:30	40.6	40.6	40.6	71	31.9	2	5	90	0.00	29.908 
14:35	40.6	40.6	40.6	71	31.9	2	4	90	0.00	29.908 
14:40	40.6	40.6	40.6	71	31.9	1	3	90	0.00	29.908 
14:45	40.6	40.6	40.6	71	31.9	1	3	112	0.00	29.908 
14:50	40.8	40.8	40.8	71	32.1	1	3	112	0.00	29.908 
14:55	40.8	40.8	40.8	72	32.5	1	4	90	0.00	29.908 
15:00	40.9	40.9	40.9	71	32.2	1	3	202	0.00	29.898 
15:05	41.1	41.1	41.1	71	32.4	1	3	112	0.00	29.898 
15:10	41.2	41.2	41.2	71	32.5	2	4	112	0.00	29.898 
15:15	41.3	41.3	41.3	71	32.6	1	3	112	0.00	29.893 
15:20	41.3	41.3	41.3	70	32.3	2	4	112	0.00	29.893 
15:25	41.5	41.5	41.5	70	32.5	1	3	90	0.00	29.893 
15:30	41.5	41.5	41.5	70	32.5	1	4	112	0.00	29.880 
15:35	41.5	41.5	41.5	71	32.8	1	2	112	0.00	29.880 
15:40	41.5	41.5	41.5	71	32.8	1	4	135	0.00	29.880 
15:45	41.5	41.5	41.5	71	32.8	2	5	90	0.00	29.867 
15:50	41.5	41.5	41.5	72	33.2	1	4	112	0.00	29.867 
15:55	41.5	41.5	41.5	73	33.5	1	4	90	0.00	29.867 
16:00	41.3	41.3	41.3	74	33.6	1	4	112	0.00	29.862 
16:05	41.2	41.2	41.2	75	33.9	1	2	112	0.01	29.862 
16:10	40.9	40.9	40.9	77	34.3	1	3	112	0.01	29.862 
16:15	40.8	40.8	40.8	78	34.5	1	3	90	0.01	29.851 
16:20	40.5	40.5	40.5	80	34.8	1	3	90	0.01	29.851 
16:25	40.2	40.2	40.2	81	34.8	1	2	90	0.00	29.851 
16:30	39.9	39.9	39.9	82	34.9	0	2	90	0.01	29.840 
16:35	39.8	39.8	39.8	83	35.1	0	3	90	0.00	29.840 
16:40	39.6	39.6	39.6	84	35.2	1	4	90	0.00	29.840 
16:45	39.6	39.6	39.6	84	35.2	0	2	90	0.01	29.833 
16:50	39.5	39.5	39.5	84	35.1	0	1	90	0.00	29.833 
16:55	39.5	39.5	39.5	85	35.4	1	3	90	0.01	29.833 
17:00	39.5	39.5	39.5	86	35.7	2	4	90	0.00	29.811 
17:05	39.3	39.3	39.3	86	35.5	1	3	90	0.00	29.811 
17:10	39.3	39.3	39.3	86	35.5	2	5	90	0.00	29.811 
17:15	39.3	39.3	39.3	86	35.5	2	5	90	0.00	29.800 
17:20	39.3	39.3	39.3	86	35.5	2	5	90	0.00	29.800 
17:25	39.3	39.3	39.3	86	35.5	2	5	90	0.00	29.800 
17:30	39.3	39.3	39.3	85	35.2	1	3	90	0.00	29.801 
17:35	39.3	39.3	39.3	85	35.2	2	6	90	0.00	29.801 
17:40	39.5	39.5	39.5	85	35.4	2	5	90	0.00	29.801 
17:45	39.6	39.6	39.6	84	35.2	1	6	90	0.00	29.795 
17:50	39.6	39.6	39.6	83	34.9	2	5	112	0.00	29.795 
17:55	39.9	39.9	39.9	82	34.9	2	4	90	0.00	29.795 
18:00	40.1	40.1	40.1	81	34.7	3	6	90	0.00	29.781 
18:05	40.2	40.2	40.2	80	34.5	2	5	90	0.00	29.781 
18:10	40.2	40.2	40.2	79	34.2	3	6	90	0.00	29.781 
18:15	40.2	40.2	40.2	79	34.2	2	5	90	0.00	29.767 
18:20	40.2	40.2	40.2	79	34.2	3	5	90	0.00	29.767 
18:25	40.2	40.2	40.2	79	34.2	3	6	112	0.00	29.767 
18:30	40.2	40.2	40.2	79	34.2	3	6	90	0.00	29.762 
18:35	40.2	40.2	40.2	78	33.9	2	6	90	0.00	29.762 
18:40	40.2	40.2	40.2	79	34.2	1	4	90	0.00	29.762 
18:45	40.2	40.2	40.2	78	33.9	1	4	90	0.00	29.765 
18:50	40.2	40.2	40.2	78	33.9	1	3	112	0.00	29.765 
18:55	40.2	40.2	40.2	78	33.9	1	4	90	0.00	29.765 
19:00	40.3	40.3	40.3	77	33.7	1	5	112	0.00	29.752 
19:05	40.5	40.5	40.5	77	33.9	1	3	90	0.00	29.752 
19:10	40.5	40.5	40.5	77	33.9	1	3	90	0.00	29.752 
19:15	40.5	40.5	40.5	77	33.9	0	2	112	0.00	29.745 
19:20	40.6	40.6	40.6	77	34.0	1	3	112	0.00	29.745 
19:25	40.6	40.6	40.6	77	34.0	1	3	112	0.00	29.745 
19:30	40.8	40.8	40.8	76	33.8	1	3	112	0.00	29.744 
19:35	41.1	41.1	41.1	76	34.1	1	3	112	0.00	29.744 
19:40	41.2	41.2	41.2	75	33.9	0	2	90	0.00	29.744 
19:45	41.3	41.3	41.3	75	34.0	1	2	90	0.00	29.746 
19:50	41.6	41.6	41.6	74	33.9	1	4	90	0.00	29.746 
19:55	41.9	41.9	41.9	74	34.2	1	3	90	0.00	29.746 
20:00	42.2	42.2	42.2	73	34.2	2	5	90	0.00	29.746 
20:05	42.3	42.3	42.3	73	34.3	1	4	90	0.00	29.746 
20:10	42.6	42.6	42.6	74	34.9	1	6	112	0.00	29.746 
20:15	42.8	42.8	42.8	74	35.1	1	4	90	0.00	29.734 
20:20	42.8	42.8	42.8	76	35.8	1	3	112	0.00	29.734 
20:25	42.8	42.8	42.8	76	35.8	1	6	90	0.00	29.734 
20:30	43.1	43.1	43.1	77	36.4	2	7	90	0.00	29.729 
20:35	43.6	43.6	43.6	77	36.9	2	8	68	0.00	29.729 
20:40	44.2	44.2	44.2	78	37.8	2	7	90	0.00	29.729 
20:45	44.8	44.8	44.8	79	38.7	3	8	90	0.00	29.726 
20:50	45.1	45.1	45.1	80	39.3	2	7	90	0.00	29.726 
20:55	45.4	45.4	45.4	82	40.2	2	4	90	0.01	29.726 
21:00	45.4	45.4	45.4	84	40.9	2	6	90	0.00	29.722 
21:05	45.5	45.5	45.5	85	41.3	2	6	112	0.00	29.722 
21:10	45.8	45.8	45.8	86	41.9	2	9	68	0.00	29.722 
21:15	45.8	45.8	45.8	87	42.2	1	4	248	0.00	29.723 
21:20	46.0	46.0	46.0	87	42.4	1	6	248	0.00	29.723 
21:25	46.1	46.1	46.1	88	42.7	2	5	68	0.00	29.723 
21:30	46.1	46.1	46.1	88	42.7	1	3	45	0.00	29.719 
21:35	46.2	46.2	46.2	88	42.8	1	4	68	0.00	29.719 
21:40	46.2	46.2	46.2	89	43.1	2	5	68	0.00	29.719 
21:45	46.4	46.4	46.4	89	43.3	1	3	68	0.00	29.716 
21:50	46.4	46.4	46.4	90	43.6	1	4	90	0.00	29.716 
21:55	46.4	46.4	46.4	90	43.6	1	5	90	0.00	29.716 
22:00	46.4	46.4	46.4	90	43.6	1	4	112	0.00	29.709 
22:05	46.4	46.4	46.4	91	43.9	1	4	248	0.00	29.709 
22:10	46.4	46.4	46.4	91	43.9	1	4	45	0.00	29.709 
22:15	46.4	46.4	46.4	92	44.2	1	8	112	0.00	29.705 
22:20	46.4	46.4	46.4	92	44.2	1	5	90	0.00	29.705 
22:25	46.4	46.4	46.4	92	44.2	1	6	112	0.00	29.705 
22:30	46.4	46.4	46.4	92	44.2	1	5	112	0.00	29.703 
22:35	46.5	46.5	46.5	92	44.3	1	4	270	0.00	29.703 
22:40	46.7	46.7	46.7	92	44.5	1	5	68	0.00	29.703 
22:45	46.7	46.7	46.7	93	44.8	2	5	68	0.00	29.687 
22:50	46.8	46.8	46.8	93	44.9	2	4	90	0.00	29.687 
22:55	46.8	46.8	46.8	93	44.9	2	7	90	0.00	29.687 
23:00	47.0	47.0	47.0	93	45.1	3	6	112	0.00	29.680 
23:05	47.0	47.0	47.0	93	45.1	2	7	112	0.00	29.680 
23:10	47.0	47.0	47.0	93	45.1	2	5	22	0.00	29.680 
23:15	47.0	47.0	47.0	93	45.1	1	3	135	0.00	29.678 
23:20	47.0	47.0	47.0	93	45.1	2	6	112	0.00	29.678 
23:25	46.8	46.8	46.8	93	44.9	2	6	90	0.00	29.678 
23:30	46.8	46.8	46.8	93	44.9	1	4	90	0.00	29.672 
23:35	46.8	46.8	46.8	93	44.9	2	7	90	0.00	29.672 
23:40	46.8	46.8	46.8	93	44.9	2	7	135	0.00	29.672 
23:45	46.8	46.8	46.8	93	44.9	2	6	90	0.00	29.672 
23:50	47.0	47.0	47.0	93	45.1	1	4	45	0.00	29.672 
23:55	47.0	47.0	47.0	93	45.1	1	4	112	0.00	29.672 

CoCoRaHS
IN-AL-39
A2 Web Hosting
Creative Commons License
GoDaddy
search engine by freefind advanced

loaded 2018-11-22 05:26:40 • last modified 2010-11-18 10:43:29
Privacy PolicyDisclaimer
• wx.awcolley.com is powered by PmWiki v.2002016 •
• all content (unless otherwise noted) © 2018 A W Colley